Time;durP1;ratioP1;P1;durP2;ratioP2;P2;SDS_P1;SDS_P2;PMS_P1;PMS_P2;Temp;Humidity;BMP_temperature;BMP_pressure;BME280_temperature;BME280_humidity;BME280_pressure;Samples;Min_cycle;Max_cycle;Signal;HPM_P1;HPM_P2
2022/09/18 00:01:00;;;;;;;4.37;1.67;;;12.40;58.30;;;;;;20939;6727;119485;-75
2022/09/18 00:03:37;;;;;;;2.95;1.90;;;12.20;59.00;;;;;;20543;6761;332388;-75
2022/09/18 00:06:12;;;;;;;2.90;1.40;;;12.30;58.20;;;;;;20531;6751;310783;-76
2022/09/18 00:08:54;;;;;;;2.00;1.33;;;12.70;57.20;;;;;;20422;6756;340845;-75
2022/09/18 00:11:29;;;;;;;2.40;1.30;;;13.00;56.30;;;;;;20875;6754;116973;-75
2022/09/18 00:14:05;;;;;;;3.47;1.20;;;12.80;56.60;;;;;;20791;6754;121510;-76
2022/09/18 00:16:41;;;;;;;2.85;1.60;;;12.50;57.50;;;;;;20441;6766;307442;-75
2022/09/18 00:19:16;;;;;;;1.93;1.10;;;12.60;57.40;;;;;;20800;6741;117842;-76
2022/09/18 00:21:52;;;;;;;4.05;1.65;;;12.50;57.50;;;;;;20430;6760;312357;-75
2022/09/18 00:24:28;;;;;;;1.67;1.57;;;12.70;57.00;;;;;;20813;6752;117058;-75
2022/09/18 00:27:04;;;;;;;3.87;1.30;;;12.60;57.20;;;;;;20712;6753;117450;-75
2022/09/18 00:29:39;;;;;;;3.47;1.67;;;12.40;57.90;;;;;;20697;6723;306522;-76
2022/09/18 00:32:15;;;;;;;3.70;1.30;;;12.50;57.60;;;;;;20821;6756;117590;-75
2022/09/18 00:34:50;;;;;;;3.97;1.50;;;12.50;57.60;;;;;;20690;6724;305572;-75
2022/09/18 00:37:27;;;;;;;2.40;1.50;;;12.60;57.30;;;;;;20621;6755;306219;-75
2022/09/18 00:40:02;;;;;;;4.70;1.53;;;13.00;56.70;;;;;;20830;6751;119493;-75
2022/09/18 00:42:37;;;;;;;6.03;1.47;;;12.80;56.80;;;;;;20850;6741;122266;-75
2022/09/18 00:45:13;;;;;;;3.97;1.53;;;12.70;57.60;;;;;;20581;6748;338389;-75
2022/09/18 00:47:49;;;;;;;2.27;1.50;;;12.60;57.50;;;;;;20838;6778;119823;-75
2022/09/18 00:50:24;;;;;;;3.00;1.40;;;12.60;57.70;;;;;;20614;6751;338338;-76
2022/09/18 00:53:05;;;;;;;5.20;1.50;;;12.70;57.50;;;;;;20827;6754;118061;-75
2022/09/18 00:56:15;;;;;;;3.37;1.13;;;12.60;57.60;;;;;;20790;6750;118518;-75
2022/09/18 00:58:50;;;;;;;3.63;1.30;;;12.40;59.00;;;;;;20903;6735;116865;-75
2022/09/18 01:01:26;;;;;;;2.27;1.40;;;12.20;59.70;;;;;;20853;6757;121100;-75
2022/09/18 01:04:02;;;;;;;3.90;1.13;;;12.10;59.50;;;;;;20854;6738;117433;-75
2022/09/18 01:06:37;;;;;;;2.05;1.30;;;12.00;60.00;;;;;;20498;6755;308254;-76
2022/09/18 01:09:23;;;;;;;2.63;1.23;;;12.20;59.40;;;;;;20849;6748;117031;-75
2022/09/18 01:12:18;;;;;;;3.37;1.45;;;12.30;59.30;;;;;;20560;6765;337676;-75
2022/09/18 01:15:01;;;;;;;4.00;1.60;;;12.60;58.80;;;;;;20570;6765;308460;-75
2022/09/18 01:17:40;;;;;;;2.63;1.30;;;12.90;57.50;;;;;;20789;6765;117399;-75
2022/09/18 01:20:49;;;;;;;2.13;1.10;;;12.90;57.80;;;;;;20836;6748;120186;-76
2022/09/18 01:23:53;;;;;;;2.83;1.23;;;12.60;58.60;;;;;;20845;6755;116952;-76
2022/09/18 01:26:40;;;;;;;2.93;1.30;;;12.30;59.30;;;;;;20721;6739;117361;-76
2022/09/18 01:29:35;;;;;;;4.27;1.50;;;12.20;60.00;;;;;;20894;6737;116855;-75
2022/09/18 01:32:14;;;;;;;0.93;0.83;;;12.10;60.40;;;;;;20852;6745;116910;-76
2022/09/18 01:34:55;;;;;;;1.27;1.17;;;12.00;60.70;;;;;;20851;6745;116980;-76
2022/09/18 01:37:47;;;;;;;1.73;1.30;;;11.90;60.90;;;;;;20874;6740;120647;-77
2022/09/18 01:40:30;;;;;;;1.87;1.50;;;11.80;61.10;;;;;;20543;6797;121234;-75
2022/09/18 01:43:05;;;;;;;2.40;1.23;;;11.80;61.30;;;;;;20900;6739;119630;-75
2022/09/18 01:45:41;;;;;;;3.62;1.27;;;11.70;61.50;;;;;;20618;6720;278377;-76
2022/09/18 01:48:17;;;;;;;2.47;1.23;;;12.10;60.80;;;;;;20666;6736;283169;-76
2022/09/18 01:50:52;;;;;;;3.47;1.50;;;12.50;59.30;;;;;;20714;6726;289751;-75
2022/09/18 01:53:27;;;;;;;2.47;1.20;;;12.90;58.10;;;;;;20739;6783;117020;-75
2022/09/18 01:56:06;;;;;;;3.65;1.50;;;12.80;58.20;;;;;;20491;6765;345448;-75
2022/09/18 01:58:42;;;;;;;2.33;1.33;;;12.80;58.20;;;;;;20829;6755;117209;-75
2022/09/18 02:01:18;;;;;;;1.40;1.30;;;12.80;58.20;;;;;;20852;6744;116936;-76
2022/09/18 02:03:54;;;;;;;1.80;1.17;;;12.60;58.90;;;;;;20834;6765;116933;-76
2022/09/18 02:06:46;;;;;;;3.10;1.60;;;12.40;59.50;;;;;;20504;6740;328920;-76
2022/09/18 02:09:22;;;;;;;2.40;1.30;;;12.60;58.90;;;;;;20850;6745;117343;-76
2022/09/18 02:11:57;;;;;;;3.70;1.35;;;12.60;58.90;;;;;;20653;6748;279166;-76
2022/09/18 02:14:46;;;;;;;2.85;1.35;;;12.70;58.40;;;;;;20613;6804;306614;-76
2022/09/18 02:17:30;;;;;;;2.87;1.20;;;12.90;57.80;;;;;;20883;6748;117109;-76
2022/09/18 02:20:09;;;;;;;2.17;1.20;;;12.90;57.80;;;;;;20787;6767;126928;-76
2022/09/18 02:22:41;;;;;;;1.93;1.30;;;12.70;58.60;;;;;;20891;6741;122906;-76
2022/09/18 02:25:17;;;;;;;2.05;1.60;;;12.50;59.30;;;;;;20584;6759;278331;-76
2022/09/18 02:27:53;;;;;;;1.87;1.10;;;12.70;59.00;;;;;;20882;6738;117814;-76
2022/09/18 02:30:29;;;;;;;3.07;1.30;;;12.60;58.90;;;;;;20823;6753;116828;-76
2022/09/18 02:33:07;;;;;;;2.10;1.23;;;12.50;59.50;;;;;;20767;6770;117152;-76
2022/09/18 02:35:40;;;;;;;1.67;1.50;;;12.30;60.00;;;;;;20476;6822;313613;-76
2022/09/18 02:38:45;;;;;;;2.10;1.10;;;12.50;59.40;;;;;;20808;6756;126870;-76
2022/09/18 02:41:44;;;;;;;3.37;1.50;;;12.50;59.30;;;;;;20380;6826;307537;-76
2022/09/18 02:44:35;;;;;;;1.53;1.00;;;12.80;58.40;;;;;;20845;6751;117169;-76
2022/09/18 02:47:14;;;;;;;2.20;0.97;;;12.70;58.50;;;;;;20625;6823;117556;-76
2022/09/18 02:50:06;;;;;;;4.93;1.30;;;12.40;58.60;;;;;;20896;6741;117260;-76
2022/09/18 02:52:41;;;;;;;2.77;1.33;;;12.30;59.90;;;;;;20565;6769;310652;-76
2022/09/18 02:55:17;;;;;;;2.67;1.30;;;12.50;58.80;;;;;;20591;6753;280326;-76
2022/09/18 02:57:56;;;;;;;2.17;1.40;;;12.90;57.90;;;;;;20608;6759;336138;-76
2022/09/18 03:00:35;;;;;;;2.23;1.20;;;13.20;56.70;;;;;;20823;6755;117476;-76
2022/09/18 03:03:07;;;;;;;2.75;1.30;;;13.00;57.00;;;;;;20560;6770;278785;-76
2022/09/18 03:05:43;;;;;;;3.43;1.53;;;13.10;56.60;;;;;;20698;6789;117255;-76
2022/09/18 03:08:18;;;;;;;1.13;1.00;;;12.90;57.00;;;;;;20887;6735;123058;-76
2022/09/18 03:10:54;;;;;;;2.87;1.20;;;12.60;57.70;;;;;;20819;6762;117617;-76
2022/09/18 03:13:30;;;;;;;1.63;1.40;;;12.40;58.50;;;;;;20857;6747;120923;-76
2022/09/18 03:16:06;;;;;;;1.98;1.20;;;12.50;58.70;;;;;;20554;6745;278520;-77
2022/09/18 03:18:45;;;;;;;3.63;1.20;;;12.50;58.20;;;;;;20762;6762;119494;-76
2022/09/18 03:21:17;;;;;;;6.03;1.40;;;12.50;58.20;;;;;;20927;6732;116968;-76
2022/09/18 03:23:55;;;;;;;1.73;1.23;;;12.20;59.10;;;;;;20851;6747;117901;-76
2022/09/18 03:26:30;;;;;;;1.53;1.10;;;12.20;59.10;;;;;;20663;6762;118868;-76
2022/09/18 03:29:09;;;;;;;1.77;1.03;;;12.10;59.50;;;;;;20859;6747;117074;-76
2022/09/18 03:31:45;;;;;;;3.13;1.50;;;12.00;60.00;;;;;;20642;6747;308506;-76
2022/09/18 03:34:20;;;;;;;3.20;1.50;;;12.20;58.80;;;;;;20569;6748;310391;-76
2022/09/18 03:36:56;;;;;;;4.50;1.23;;;12.70;57.90;;;;;;20662;6775;117607;-76
2022/09/18 03:39:31;;;;;;;2.30;1.48;;;12.60;57.80;;;;;;20662;6746;308949;-77
2022/09/18 03:42:08;;;;;;;3.60;1.30;;;13.10;56.40;;;;;;20626;6737;304963;-77
2022/09/18 03:44:43;;;;;;;2.30;1.10;;;13.00;56.30;;;;;;20840;6752;117031;-76
2022/09/18 03:47:19;;;;;;;2.43;1.20;;;12.90;56.60;;;;;;20832;6753;120108;-77
2022/09/18 03:49:54;;;;;;;3.25;1.40;;;12.60;57.50;;;;;;20619;6751;276801;-77
2022/09/18 03:52:31;;;;;;;2.30;1.20;;;13.00;56.70;;;;;;20648;6739;305109;-77
2022/09/18 03:55:06;;;;;;;3.40;1.50;;;13.00;56.70;;;;;;20656;6738;286599;-76
2022/09/18 03:57:42;;;;;;;3.62;1.35;;;13.30;56.50;;;;;;20550;6755;306004;-76
2022/09/18 04:00:18;;;;;;;2.45;1.50;;;13.50;55.90;;;;;;20551;6770;307432;-76
2022/09/18 04:02:53;;;;;;;4.77;1.50;;;13.60;55.30;;;;;;20819;6766;117078;-77
2022/09/18 04:05:29;;;;;;;2.57;1.53;;;13.30;55.90;;;;;;20782;6753;117074;-76
2022/09/18 04:08:04;;;;;;;4.23;1.50;;;13.00;57.00;;;;;;20940;6721;116893;-77
2022/09/18 04:10:40;;;;;;;2.23;1.20;;;12.70;57.90;;;;;;20899;6721;72307;-77
2022/09/18 04:13:15;;;;;;;2.30;1.37;;;12.50;58.60;;;;;;20856;6740;117969;-77
2022/09/18 04:15:51;;;;;;;3.97;1.83;;;12.30;59.10;;;;;;20524;6753;308656;-76
2022/09/18 04:18:27;;;;;;;3.28;1.70;;;12.50;58.90;;;;;;20602;6743;306083;-76
2022/09/18 04:21:03;;;;;;;4.63;1.67;;;12.90;58.00;;;;;;20872;6743;117824;-76
2022/09/18 04:23:39;;;;;;;3.53;1.63;;;12.80;57.80;;;;;;20876;6743;120163;-76
2022/09/18 04:26:15;;;;;;;4.17;1.60;;;12.80;58.00;;;;;;20524;6743;282449;-77
2022/09/18 04:28:50;;;;;;;2.90;1.37;;;12.70;57.80;;;;;;20616;6755;297971;-76
2022/09/18 04:31:26;;;;;;;3.07;1.63;;;13.10;56.90;;;;;;20820;6762;117071;-77
2022/09/18 04:34:02;;;;;;;3.00;1.50;;;13.00;57.10;;;;;;20764;6777;117721;-76
2022/09/18 04:36:37;;;;;;;3.73;1.60;;;12.70;57.80;;;;;;20648;6764;117580;-78
2022/09/18 04:39:13;;;;;;;1.90;1.60;;;12.40;58.60;;;;;;20700;6735;277390;-77
2022/09/18 04:41:49;;;;;;;3.40;1.50;;;12.60;58.30;;;;;;20818;6735;116934;-77
2022/09/18 04:44:24;;;;;;;3.45;1.52;;;12.60;58.30;;;;;;20677;6735;305976;-78
2022/09/18 04:46:59;;;;;;;3.53;1.37;;;12.80;57.80;;;;;;20521;6787;308249;-77
2022/09/18 04:49:35;;;;;;;1.60;1.20;;;13.10;56.90;;;;;;20638;6753;314398;-78
2022/09/18 04:52:11;;;;;;;2.17;1.40;;;13.30;56.10;;;;;;20510;6770;308474;-78
2022/09/18 04:54:46;;;;;;;2.97;1.50;;;13.50;55.70;;;;;;20753;6781;117786;-78
2022/09/18 04:57:22;;;;;;;2.37;1.50;;;13.30;56.10;;;;;;20601;6768;340845;-78
2022/09/18 04:59:58;;;;;;;1.40;1.30;;;13.40;55.90;;;;;;20565;6784;278606;-77
2022/09/18 05:02:34;;;;;;;2.05;1.42;;;13.40;55.90;;;;;;20577;6760;337868;-77
2022/09/18 05:05:09;;;;;;;2.17;1.30;;;13.60;55.60;;;;;;20600;6757;278090;-78
2022/09/18 05:07:45;;;;;;;1.67;1.30;;;13.60;55.20;;;;;;20837;6754;117007;-78
2022/09/18 05:10:31;;;;;;;2.28;1.40;;;13.40;55.80;;;;;;20649;6736;335963;-78
2022/09/18 05:13:07;;;;;;;2.20;1.27;;;13.30;56.00;;;;;;20816;6797;117081;-78
2022/09/18 05:15:42;;;;;;;2.00;1.50;;;13.10;56.40;;;;;;20752;6754;117008;-76
2022/09/18 05:18:29;;;;;;;2.53;1.40;;;12.80;57.30;;;;;;20875;6733;127333;-76
2022/09/18 05:21:08;;;;;;;2.05;1.05;;;12.50;58.10;;;;;;20678;6789;277384;-77
2022/09/18 05:23:44;;;;;;;3.23;1.40;;;12.70;58.00;;;;;;19586;7156;328678;-77
2022/09/18 05:26:20;;;;;;;2.73;1.30;;;13.00;57.20;;;;;;20417;6789;121609;-76
2022/09/18 05:28:55;;;;;;;3.47;1.40;;;12.90;57.20;;;;;;20640;6748;339190;-77
2022/09/18 05:31:31;;;;;;;2.87;1.60;;;13.00;57.10;;;;;;20693;6735;281920;-76
2022/09/18 05:34:07;;;;;;;1.53;1.43;;;13.30;56.50;;;;;;20730;6724;276253;-77
2022/09/18 05:36:44;;;;;;;2.03;1.20;;;13.40;55.90;;;;;;20596;6712;308799;-77
2022/09/18 05:39:59;;;;;;;2.80;1.40;;;13.60;55.60;;;;;;20921;6726;117478;-78
2022/09/18 05:46:10;;;;;;;2.53;1.07;;;12.90;57.20;;;;;;20718;6731;127260;-79
2022/09/18 05:48:49;;;;;;;2.35;1.45;;;12.40;58.30;;;;;;20613;6758;307904;-77
2022/09/18 05:51:24;;;;;;;1.85;1.20;;;12.60;58.40;;;;;;20555;6768;307578;-77
2022/09/18 05:54:00;;;;;;;2.60;1.33;;;13.00;57.70;;;;;;20589;6765;309348;-79
2022/09/18 05:56:36;;;;;;;3.70;1.70;;;13.20;56.80;;;;;;20466;6750;281026;-78
2022/09/18 05:59:13;;;;;;;2.60;1.50;;;13.40;56.50;;;;;;20551;6769;307923;-76
2022/09/18 06:01:49;;;;;;;1.60;1.40;;;13.70;55.80;;;;;;20588;6765;307107;-79
2022/09/18 06:04:24;;;;;;;3.37;1.40;;;13.70;55.70;;;;;;20811;6757;117225;-78
2022/09/18 06:07:01;;;;;;;1.20;1.10;;;13.40;56.30;;;;;;20548;6792;118202;-79
2022/09/18 06:09:36;;;;;;;1.97;1.20;;;13.10;57.30;;;;;;20798;6766;118372;-79
2022/09/18 06:12:13;;;;;;;2.45;1.50;;;12.90;58.00;;;;;;20636;6743;277849;-77
2022/09/18 06:14:48;;;;;;;1.70;1.60;;;12.90;58.00;;;;;;20612;6755;281433;-80
2022/09/18 06:17:24;;;;;;;3.53;1.30;;;13.20;57.30;;;;;;20659;6745;299997;-77
2022/09/18 06:20:00;;;;;;;5.27;1.70;;;13.40;56.60;;;;;;20662;6745;276445;-86
2022/09/18 06:22:36;;;;;;;2.47;1.40;;;13.70;56.00;;;;;;20645;6745;280735;-79
2022/09/18 06:25:12;;;;;;;2.17;1.45;;;13.70;56.00;;;;;;20569;6757;316039;-79
2022/09/18 06:27:49;;;;;;;2.03;1.23;;;13.80;55.50;;;;;;20809;6771;117256;-80
2022/09/18 06:30:24;;;;;;;4.10;1.50;;;13.50;56.40;;;;;;20517;6832;280316;-82
2022/09/18 06:32:59;;;;;;;1.40;1.20;;;13.50;56.30;;;;;;20879;6739;117076;-81
2022/09/18 06:35:37;;;;;;;1.73;1.10;;;13.30;56.70;;;;;;20817;6745;117777;-82
2022/09/18 06:38:11;;;;;;;2.67;1.60;;;13.10;57.70;;;;;;20607;6751;311604;-79
2022/09/18 06:40:53;;;;;;;33.37;25.80;;;13.20;57.40;;;;;;20628;6751;278332;-80
2022/09/18 06:43:28;;;;;;;5.37;4.87;;;13.50;56.80;;;;;;20581;6766;307257;-77
2022/09/18 06:46:06;;;;;;;5.07;4.63;;;13.70;56.20;;;;;;20542;6752;280331;-81
2022/09/18 06:48:40;;;;;;;3.67;3.30;;;13.90;55.60;;;;;;20635;6752;309498;-79
2022/09/18 06:51:16;;;;;;;3.07;2.50;;;14.00;54.90;;;;;;20794;6766;122454;-79
2022/09/18 06:53:52;;;;;;;5.37;4.80;;;13.80;55.60;;;;;;20610;6763;308682;-79
2022/09/18 06:56:28;;;;;;;3.25;2.80;;;14.00;56.00;;;;;;20500;6752;308533;-78
2022/09/18 06:59:04;;;;;;;2.63;2.13;;;14.00;55.30;;;;;;20841;6751;119477;-81
2022/09/18 07:01:40;;;;;;;2.63;2.30;;;13.80;55.60;;;;;;20847;6750;118507;-80
2022/09/18 07:04:16;;;;;;;3.10;2.80;;;13.50;56.40;;;;;;20599;6754;326334;-80
2022/09/18 07:06:52;;;;;;;4.87;2.60;;;13.60;56.70;;;;;;20677;6752;117585;-78
2022/09/18 07:09:29;;;;;;;6.30;5.70;;;13.60;56.70;;;;;;20843;6754;117900;-78
2022/09/18 07:12:04;;;;;;;5.87;1.80;;;13.40;57.40;;;;;;20874;6737;116860;-82
2022/09/18 07:14:40;;;;;;;3.37;3.07;;;13.20;57.90;;;;;;20842;6755;118181;-83
2022/09/18 07:17:16;;;;;;;2.07;1.90;;;13.00;59.20;;;;;;20865;6752;117150;-83
2022/09/18 07:19:53;;;;;;;3.80;3.23;;;13.00;58.90;;;;;;20530;6778;311471;-80
2022/09/18 07:22:29;;;;;;;30.13;18.27;;;13.30;58.20;;;;;;20821;6757;117049;-82
2022/09/18 07:25:05;;;;;;;5.50;5.00;;;13.40;58.20;;;;;;20635;6754;277962;-82
2022/09/18 07:27:43;;;;;;;4.93;2.70;;;13.70;57.20;;;;;;20544;6757;276792;-79
2022/09/18 07:30:16;;;;;;;2.83;2.20;;;14.10;56.40;;;;;;20687;6719;305446;-83
2022/09/18 07:32:51;;;;;;;2.70;2.50;;;14.40;55.20;;;;;;20844;6753;117945;-80
2022/09/18 07:35:30;;;;;;;1.37;1.00;;;14.30;55.60;;;;;;20597;6738;117970;-78
2022/09/18 07:38:04;;;;;;;1.98;1.70;;;14.10;56.20;;;;;;20622;6757;276031;-79
2022/09/18 07:40:41;;;;;;;1.73;1.33;;;14.20;55.70;;;;;;20846;6739;115794;-82
2022/09/18 07:43:16;;;;;;;4.27;1.40;;;14.10;55.90;;;;;;20797;6764;116306;-81
2022/09/18 07:45:52;;;;;;;2.83;1.70;;;13.90;56.50;;;;;;20606;6731;307483;-79
2022/09/18 07:48:28;;;;;;;7.77;5.83;;;14.10;55.90;;;;;;20814;6755;122587;-79
2022/09/18 07:51:03;;;;;;;15.37;9.77;;;14.10;56.10;;;;;;20812;6761;118197;-78
2022/09/18 07:53:40;;;;;;;3.83;2.50;;;13.90;56.60;;;;;;20849;6761;116743;-79
2022/09/18 07:56:14;;;;;;;1.73;1.63;;;13.80;56.90;;;;;;20757;6762;117563;-78
2022/09/18 07:58:50;;;;;;;2.30;1.67;;;13.60;57.20;;;;;;20644;6748;311726;-76
2022/09/18 08:01:25;;;;;;;3.03;1.20;;;13.80;56.00;;;;;;20780;6779;118475;-76
2022/09/18 08:04:02;;;;;;;1.67;1.07;;;13.80;56.10;;;;;;20845;6752;117201;-78
2022/09/18 08:06:37;;;;;;;3.22;1.45;;;13.60;56.60;;;;;;20457;6753;304408;-76
2022/09/18 08:09:12;;;;;;;1.17;0.97;;;13.80;55.90;;;;;;20858;6744;119795;-77
2022/09/18 08:11:52;;;;;;;0.87;0.87;;;13.90;56.30;;;;;;20827;6754;117641;-77
2022/09/18 08:14:29;;;;;;;1.53;1.00;;;13.80;56.80;;;;;;20596;6749;317823;-76
2022/09/18 08:17:06;;;;;;;1.40;1.20;;;14.00;55.60;;;;;;20436;6749;278772;-76
2022/09/18 08:19:41;;;;;;;1.70;0.50;;;14.40;54.70;;;;;;20881;6738;118716;-76
2022/09/18 08:22:17;;;;;;;0.90;0.80;;;14.50;55.20;;;;;;20853;6738;121807;-76
2022/09/18 08:24:52;;;;;;;1.33;1.10;;;14.30;55.50;;;;;;20646;6738;337640;-76
2022/09/18 08:27:29;;;;;;;1.63;0.90;;;14.40;55.00;;;;;;20869;6738;116870;-77
2022/09/18 08:30:05;;;;;;;1.53;0.90;;;14.40;55.20;;;;;;20652;6734;306191;-77
2022/09/18 08:32:41;;;;;;;2.47;0.80;;;14.60;54.40;;;;;;20907;6734;121810;-76
2022/09/18 08:35:16;;;;;;;1.40;0.93;;;14.50;54.80;;;;;;20634;6734;307350;-76
2022/09/18 08:37:52;;;;;;;2.17;0.97;;;14.60;54.70;;;;;;20856;6790;122027;-77
2022/09/18 08:40:41;;;;;;;2.25;0.90;;;14.60;55.10;;;;;;20629;6746;281248;-77
2022/09/18 08:43:26;;;;;;;2.28;0.90;;;14.70;54.60;;;;;;20672;6734;306986;-79
2022/09/18 08:46:19;;;;;;;6.15;4.75;;;15.00;54.20;;;;;;20675;6607;335258;-92
2022/09/18 08:55:22;;;;;;;4.00;3.80;;;14.80;54.60;;;;;;21256;6514;67575;-66
2022/09/18 08:57:48;;;;;;;2.73;2.17;;;14.60;55.60;;;;;;20857;6791;121100;-66
2022/09/18 09:00:30;;;;;;;1.93;0.90;;;14.60;55.60;;;;;;20833;6787;120767;-67
2022/09/18 09:03:13;;;;;;;0.97;0.90;;;14.50;55.70;;;;;;20273;6857;117324;-66
2022/09/18 09:05:39;;;;;;;0.70;0.70;;;14.30;55.50;;;;;;20687;6853;117930;-65
2022/09/18 09:08:17;;;;;;;2.57;2.37;;;14.30;55.50;;;;;;20418;6840;310980;-66
2022/09/18 09:10:46;;;;;;;2.20;0.90;;;14.40;53.80;;;;;;20593;6872;121572;-67
2022/09/18 09:13:25;;;;;;;2.50;2.27;;;14.50;54.10;;;;;;20668;6836;117565;-66
2022/09/18 09:16:10;;;;;;;5.90;4.50;;;14.30;54.40;;;;;;20668;6857;117455;-63
2022/09/18 09:18:59;;;;;;;3.92;3.72;;;14.20;54.80;;;;;;20465;6857;317858;-68
2022/09/18 09:21:49;;;;;;;1.13;1.00;;;14.60;54.10;;;;;;20673;6850;118150;-66
2022/09/18 09:24:37;;;;;;;3.47;1.30;;;14.50;54.00;;;;;;20439;6850;312065;-67
2022/09/18 09:27:22;;;;;;;2.72;1.08;;;14.80;53.10;;;;;;19419;7210;295730;-67
2022/09/18 09:29:49;;;;;;;2.90;1.40;;;15.40;51.20;;;;;;20414;6871;278709;-65
2022/09/18 09:32:18;;;;;;;7.50;6.70;;;15.40;51.20;;;;;;20638;6839;118539;-66
2022/09/18 09:34:44;;;;;;;2.00;1.50;;;15.00;52.50;;;;;;20679;6843;117633;-68
2022/09/18 09:37:10;;;;;;;2.40;1.50;;;15.10;51.70;;;;;;20315;6853;309187;-67
2022/09/18 09:39:39;;;;;;;1.48;1.37;;;15.10;51.70;;;;;;20469;6845;337496;-67
2022/09/18 09:42:06;;;;;;;1.48;1.37;;;15.30;51.30;;;;;;20386;6871;279636;-71
2022/09/18 09:44:45;;;;;;;5.60;3.60;;;15.50;50.70;;;;;;20357;6874;338452;-67
2022/09/18 09:47:11;;;;;;;2.63;1.70;;;15.70;50.90;;;;;;20350;6874;309405;-66
2022/09/18 09:49:46;;;;;;;4.30;4.00;;;15.80;50.20;;;;;;20396;6866;309716;-66
2022/09/18 09:52:18;;;;;;;2.37;2.17;;;16.00;50.20;;;;;;20371;6882;338268;-66
2022/09/18 09:54:43;;;;;;;3.80;1.45;;;16.20;49.40;;;;;;20372;6882;309768;-66
2022/09/18 09:57:15;;;;;;;3.72;1.02;;;16.40;49.20;;;;;;20593;6882;118108;-66
2022/09/18 10:00:01;;;;;;;2.60;1.70;;;16.20;49.90;;;;;;20426;6855;308260;-66
2022/09/18 10:02:30;;;;;;;1.30;1.20;;;16.30;48.90;;;;;;20418;6855;309147;-65
2022/09/18 10:04:55;;;;;;;2.40;1.60;;;16.60;49.30;;;;;;20657;6851;117542;-67
2022/09/18 10:07:24;;;;;;;2.80;1.70;;;16.60;49.80;;;;;;20439;6852;279675;-67
2022/09/18 10:10:23;;;;;;;3.17;1.57;;;16.80;50.00;;;;;;20617;6872;117975;-67
2022/09/18 10:12:59;;;;;;;2.37;1.10;;;16.80;50.00;;;;;;20646;6852;117455;-66
2022/09/18 10:15:24;;;;;;;3.30;1.30;;;16.50;50.20;;;;;;20466;6852;311135;-66
2022/09/18 10:17:51;;;;;;;2.67;1.00;;;16.70;48.10;;;;;;20604;6852;117665;-74
2022/09/18 10:20:17;;;;;;;2.30;1.20;;;16.70;48.90;;;;;;20425;6855;283257;-72
2022/09/18 10:22:43;;;;;;;2.10;1.17;;;16.80;48.10;;;;;;20444;6860;310274;-74
2022/09/18 10:25:14;;;;;;;3.28;2.00;;;17.00;47.10;;;;;;20463;6856;278924;-74
2022/09/18 10:27:39;;;;;;;3.13;1.17;;;17.30;47.20;;;;;;20346;6856;120947;-74
2022/09/18 10:30:13;;;;;;;2.15;1.50;;;17.30;48.00;;;;;;20483;6856;293428;-73
2022/09/18 10:32:40;;;;;;;2.20;1.27;;;17.40;47.30;;;;;;20685;6856;117646;-76
2022/09/18 10:35:30;;;;;;;2.50;1.58;;;17.30;47.80;;;;;;20403;6856;301875;-74
2022/09/18 10:37:55;;;;;;;2.03;1.00;;;17.40;46.40;;;;;;20341;6860;126554;-70
2022/09/18 10:40:38;;;;;;;2.72;1.40;;;17.30;47.30;;;;;;20443;6849;343677;-68
2022/09/18 10:43:03;;;;;;;2.45;1.52;;;17.40;46.00;;;;;;20422;6849;281548;-66
2022/09/18 10:45:29;;;;;;;3.90;1.20;;;17.70;46.00;;;;;;20418;6852;278093;-68
2022/09/18 10:48:12;;;;;;;3.07;1.30;;;17.90;45.80;;;;;;20462;6852;308172;-73
2022/09/18 10:50:37;;;;;;;2.42;1.27;;;18.10;45.00;;;;;;20473;6855;317518;-65
2022/09/18 10:53:20;;;;;;;3.27;1.20;;;18.10;45.70;;;;;;20691;6857;116876;-64
2022/09/18 10:55:48;;;;;;;2.00;1.30;;;18.10;45.60;;;;;;20435;6857;119538;-65
2022/09/18 10:58:14;;;;;;;0.80;0.70;;;17.70;46.40;;;;;;20658;6861;117750;-65
2022/09/18 11:00:39;;;;;;;3.90;1.40;;;17.50;47.20;;;;;;20648;6866;119555;-66
2022/09/18 11:03:38;;;;;;;2.50;1.60;;;17.40;47.90;;;;;;20403;6866;313387;-70
2022/09/18 11:06:03;;;;;;;2.83;1.90;;;17.50;46.40;;;;;;20701;6845;118543;-71
2022/09/18 11:08:32;;;;;;;4.10;2.28;;;17.80;46.10;;;;;;20467;6845;342503;-68
2022/09/18 11:10:57;;;;;;;1.37;1.10;;;17.80;47.00;;;;;;20629;6853;117669;-69
2022/09/18 11:13:23;;;;;;;1.80;1.00;;;17.80;46.20;;;;;;20378;6872;310603;-69
2022/09/18 11:15:55;;;;;;;3.60;1.15;;;18.00;46.60;;;;;;20646;6857;117368;-68
2022/09/18 11:18:22;;;;;;;1.70;0.90;;;18.00;46.60;;;;;;20652;6856;119238;-69
2022/09/18 11:20:46;;;;;;;1.77;1.00;;;18.00;47.20;;;;;;20471;6856;311776;-69
2022/09/18 11:23:13;;;;;;;1.33;1.10;;;18.20;45.40;;;;;;20479;6856;308686;-70
2022/09/18 11:25:40;;;;;;;1.53;1.00;;;18.60;44.10;;;;;;20614;6856;119324;-66
2022/09/18 11:28:04;;;;;;;2.00;1.07;;;18.60;44.70;;;;;;20479;6852;308389;-67
2022/09/18 11:30:31;;;;;;;1.95;1.20;;;18.80;42.40;;;;;;20372;6860;279335;-68
2022/09/18 11:33:03;;;;;;;2.90;1.20;;;18.80;42.40;;;;;;20435;6860;309027;-66
2022/09/18 11:35:28;;;;;;;2.50;2.30;;;19.00;42.90;;;;;;20467;6860;117595;-67
2022/09/18 11:37:54;;;;;;;2.93;1.73;;;18.80;43.90;;;;;;20458;6860;340721;-68
2022/09/18 11:40:39;;;;;;;1.80;1.07;;;18.80;42.80;;;;;;20647;6860;117736;-67
2022/09/18 11:43:05;;;;;;;1.37;0.90;;;18.40;44.40;;;;;;20647;6860;118440;-64
2022/09/18 11:45:41;;;;;;;1.30;1.03;;;18.40;44.40;;;;;;20646;6860;117374;-64
2022/09/18 11:48:23;;;;;;;2.07;1.10;;;18.20;45.10;;;;;;20647;6860;120276;-65
2022/09/18 11:50:48;;;;;;;1.33;0.97;;;18.00;45.00;;;;;;20666;6860;121671;-65
2022/09/18 11:53:15;;;;;;;1.53;0.90;;;17.90;45.50;;;;;;20657;6860;119283;-69
2022/09/18 11:55:40;;;;;;;2.07;1.00;;;17.90;45.50;;;;;;20658;6860;120419;-68
2022/09/18 11:58:30;;;;;;;3.17;1.10;;;18.00;45.70;;;;;;20437;6860;314395;-65
2022/09/18 12:01:25;;;;;;;2.55;1.10;;;18.20;43.80;;;;;;20408;6875;279259;-65
2022/09/18 12:03:51;;;;;;;2.30;1.20;;;18.70;42.10;;;;;;20474;6852;308475;-65
2022/09/18 12:06:22;;;;;;;1.62;1.20;;;19.00;41.80;;;;;;19316;7221;323586;-65
2022/09/18 12:08:56;;;;;;;1.97;1.13;;;19.40;40.80;;;;;;19916;6878;310118;-66
2022/09/18 12:11:24;;;;;;;1.53;1.00;;;19.40;40.80;;;;;;20600;6878;117316;-66
2022/09/18 12:13:53;;;;;;;2.20;1.02;;;19.20;42.10;;;;;;20410;6869;337861;-65
2022/09/18 12:16:42;;;;;;;2.70;1.07;;;19.20;41.40;;;;;;20398;6869;343411;-65
2022/09/18 12:19:27;;;;;;;3.17;1.15;;;19.30;41.20;;;;;;20422;6869;338784;-66
2022/09/18 12:22:00;;;;;;;3.37;1.20;;;19.40;40.50;;;;;;20433;6869;313664;-66
2022/09/18 12:24:25;;;;;;;3.03;1.00;;;19.50;40.60;;;;;;20406;6854;410981;-66
2022/09/18 12:26:57;;;;;;;2.42;0.98;;;19.50;40.20;;;;;;20694;6854;117354;-66
2022/09/18 12:29:30;;;;;;;1.97;1.00;;;19.40;41.30;;;;;;20625;6870;117234;-66
2022/09/18 12:31:59;;;;;;;2.13;1.20;;;19.00;42.30;;;;;;20420;6859;313232;-66
2022/09/18 12:34:49;;;;;;;1.40;1.10;;;19.10;41.10;;;;;;20408;6871;305676;-66
2022/09/18 12:37:40;;;;;;;1.37;1.02;;;19.10;41.10;;;;;;19922;6856;308070;-65
2022/09/18 12:40:35;;;;;;;1.83;1.13;;;19.20;40.60;;;;;;20462;6856;308566;-65
2022/09/18 12:43:01;;;;;;;1.40;1.12;;;19.30;41.60;;;;;;20453;6859;338608;-65
2022/09/18 12:45:30;;;;;;;1.50;1.03;;;19.40;41.20;;;;;;20437;6859;308551;-66
2022/09/18 12:48:05;;;;;;;2.80;1.30;;;19.50;41.10;;;;;;20464;6860;279800;-67
2022/09/18 12:50:40;;;;;;;1.93;1.27;;;19.50;40.80;;;;;;20441;6860;279571;-66
2022/09/18 12:53:15;;;;;;;1.67;1.03;;;19.60;40.10;;;;;;20438;6860;309630;-67
2022/09/18 12:56:11;;;;;;;1.77;0.90;;;19.60;40.40;;;;;;20670;6860;117757;-67
2022/09/18 12:58:53;;;;;;;3.80;0.83;;;19.30;41.70;;;;;;20674;6860;121144;-66
2022/09/18 13:01:21;;;;;;;1.40;1.00;;;19.00;42.80;;;;;;20457;6860;308433;-65
2022/09/18 13:03:47;;;;;;;2.53;1.30;;;19.00;42.20;;;;;;20461;6860;337902;-66
2022/09/18 13:06:13;;;;;;;1.17;1.07;;;19.20;41.80;;;;;;20664;6860;117733;-65
2022/09/18 13:08:38;;;;;;;2.30;1.08;;;19.10;42.80;;;;;;20458;6860;279473;-66
2022/09/18 13:11:04;;;;;;;1.98;1.30;;;19.10;42.50;;;;;;20441;6860;280174;-68
2022/09/18 13:13:43;;;;;;;2.87;1.70;;;19.40;41.30;;;;;;20281;6860;279996;-68
2022/09/18 13:16:12;;;;;;;1.40;1.30;;;19.40;41.60;;;;;;20424;6860;279033;-68
2022/09/18 13:18:54;;;;;;;3.03;1.67;;;19.50;41.30;;;;;;20659;6860;121363;-68
2022/09/18 13:21:26;;;;;;;4.87;4.47;;;19.40;42.30;;;;;;20457;6860;279082;-69
2022/09/18 13:23:52;;;;;;;10.77;7.43;;;19.30;41.30;;;;;;20673;6860;117195;-72
2022/09/18 13:26:17;;;;;;;11.27;10.13;;;19.20;42.50;;;;;;20425;6860;342817;-71
2022/09/18 13:28:43;;;;;;;3.85;3.37;;;19.20;41.70;;;;;;20671;6860;117738;-70
2022/09/18 13:31:22;;;;;;;6.77;6.17;;;19.10;42.50;;;;;;20462;6860;279267;-70